sensor_id;sensor_type;location;lat;lon;timestamp;P1;P2;P0
62631;PMS5003;48703;51.248;-0.546;2023-06-14T00:01:11;19.34;18.23;
62631;PMS5003;48703;51.248;-0.546;2023-06-14T00:04:13;18.16;17.30;
62631;PMS5003;48703;51.248;-0.546;2023-06-14T00:07:14;19.80;18.03;
62631;PMS5003;48703;51.248;-0.546;2023-06-14T00:10:15;19.66;17.37;
62631;PMS5003;48703;51.248;-0.546;2023-06-14T00:13:16;21.94;19.89;
62631;PMS5003;48703;51.248;-0.546;2023-06-14T00:16:17;20.91;20.41;
62631;PMS5003;48703;51.248;-0.546;2023-06-14T00:19:18;20.78;18.61;
62631;PMS5003;48703;51.248;-0.546;2023-06-14T00:22:20;20.22;19.46;
62631;PMS5003;48703;51.248;-0.546;2023-06-14T00:25:22;19.44;19.44;
62631;PMS5003;48703;51.248;-0.546;2023-06-14T00:28:22;20.96;20.83;
62631;PMS5003;48703;51.248;-0.546;2023-06-14T00:31:24;20.24;18.49;
62631;PMS5003;48703;51.248;-0.546;2023-06-14T00:34:25;20.37;19.41;
62631;PMS5003;48703;51.248;-0.546;2023-06-14T00:37:27;20.19;18.94;
62631;PMS5003;48703;51.248;-0.546;2023-06-14T00:40:28;20.49;19.80;
62631;PMS5003;48703;51.248;-0.546;2023-06-14T00:43:31;19.43;19.09;
62631;PMS5003;48703;51.248;-0.546;2023-06-14T00:46:32;20.37;18.70;
62631;PMS5003;48703;51.248;-0.546;2023-06-14T00:49:33;19.16;18.51;
62631;PMS5003;48703;51.248;-0.546;2023-06-14T00:52:35;20.04;19.16;
62631;PMS5003;48703;51.248;-0.546;2023-06-14T00:55:36;20.39;17.90;
62631;PMS5003;48703;51.248;-0.546;2023-06-14T00:58:38;18.93;18.29;
62631;PMS5003;48703;51.248;-0.546;2023-06-14T01:01:39;21.49;18.81;
62631;PMS5003;48703;51.248;-0.546;2023-06-14T01:04:41;19.67;17.39;
62631;PMS5003;48703;51.248;-0.546;2023-06-14T01:07:46;18.03;17.68;
62631;PMS5003;48703;51.248;-0.546;2023-06-14T01:10:45;16.60;15.53;
62631;PMS5003;48703;51.248;-0.546;2023-06-14T01:13:45;18.70;15.87;
62631;PMS5003;48703;51.248;-0.546;2023-06-14T01:16:46;14.37;13.76;
62631;PMS5003;48703;51.248;-0.546;2023-06-14T01:19:48;13.99;13.29;
62631;PMS5003;48703;51.248;-0.546;2023-06-14T01:22:50;14.87;14.16;
62631;PMS5003;48703;51.248;-0.546;2023-06-14T01:25:50;16.00;15.25;
62631;PMS5003;48703;51.248;-0.546;2023-06-14T01:28:52;13.23;12.27;
62631;PMS5003;48703;51.248;-0.546;2023-06-14T01:31:53;14.47;12.97;
62631;PMS5003;48703;51.248;-0.546;2023-06-14T01:34:55;14.22;12.88;
62631;PMS5003;48703;51.248;-0.546;2023-06-14T01:37:56;14.17;13.26;
62631;PMS5003;48703;51.248;-0.546;2023-06-14T01:40:58;14.23;13.30;
62631;PMS5003;48703;51.248;-0.546;2023-06-14T01:43:59;13.79;12.80;
62631;PMS5003;48703;51.248;-0.546;2023-06-14T01:47:01;12.49;11.97;
62631;PMS5003;48703;51.248;-0.546;2023-06-14T01:50:02;12.51;11.97;
62631;PMS5003;48703;51.248;-0.546;2023-06-14T01:53:05;10.43;10.07;
62631;PMS5003;48703;51.248;-0.546;2023-06-14T01:56:05;11.90;10.24;
62631;PMS5003;48703;51.248;-0.546;2023-06-14T01:59:06;10.23;9.59;
62631;PMS5003;48703;51.248;-0.546;2023-06-14T02:02:08;10.10;9.59;
62631;PMS5003;48703;51.248;-0.546;2023-06-14T02:05:10;9.77;9.23;
62631;PMS5003;48703;51.248;-0.546;2023-06-14T02:08:11;9.69;9.69;
62631;PMS5003;48703;51.248;-0.546;2023-06-14T02:11:13;9.53;8.34;
62631;PMS5003;48703;51.248;-0.546;2023-06-14T02:14:14;9.21;8.74;
62631;PMS5003;48703;51.248;-0.546;2023-06-14T02:17:16;10.39;8.59;
62631;PMS5003;48703;51.248;-0.546;2023-06-14T02:20:17;7.09;7.03;
62631;PMS5003;48703;51.248;-0.546;2023-06-14T02:23:19;9.17;8.66;
62631;PMS5003;48703;51.248;-0.546;2023-06-14T02:26:21;8.61;7.26;
62631;PMS5003;48703;51.248;-0.546;2023-06-14T02:29:22;8.46;8.21;
62631;PMS5003;48703;51.248;-0.546;2023-06-14T02:32:24;7.53;7.31;
62631;PMS5003;48703;51.248;-0.546;2023-06-14T02:35:25;7.51;6.19;
62631;PMS5003;48703;51.248;-0.546;2023-06-14T02:38:27;7.14;6.76;
62631;PMS5003;48703;51.248;-0.546;2023-06-14T02:41:29;7.73;7.30;
62631;PMS5003;48703;51.248;-0.546;2023-06-14T02:44:30;8.40;8.10;
62631;PMS5003;48703;51.248;-0.546;2023-06-14T02:47:32;7.20;6.93;
62631;PMS5003;48703;51.248;-0.546;2023-06-14T02:50:34;7.63;6.94;
62631;PMS5003;48703;51.248;-0.546;2023-06-14T02:53:35;8.03;7.33;
62631;PMS5003;48703;51.248;-0.546;2023-06-14T02:56:37;9.01;7.79;
62631;PMS5003;48703;51.248;-0.546;2023-06-14T02:59:38;7.49;6.96;
62631;PMS5003;48703;51.248;-0.546;2023-06-14T03:02:40;8.73;8.16;
62631;PMS5003;48703;51.248;-0.546;2023-06-14T03:05:43;7.91;7.54;
62631;PMS5003;48703;51.248;-0.546;2023-06-14T03:08:43;7.97;7.21;
62631;PMS5003;48703;51.248;-0.546;2023-06-14T03:11:45;9.36;8.24;
62631;PMS5003;48703;51.248;-0.546;2023-06-14T03:14:46;9.97;9.09;
62631;PMS5003;48703;51.248;-0.546;2023-06-14T03:17:48;7.90;7.60;
62631;PMS5003;48703;51.248;-0.546;2023-06-14T03:20:50;8.47;7.74;
62631;PMS5003;48703;51.248;-0.546;2023-06-14T03:23:51;9.70;8.17;
62631;PMS5003;48703;51.248;-0.546;2023-06-14T03:26:53;10.23;8.60;
62631;PMS5003;48703;51.248;-0.546;2023-06-14T03:29:54;8.30;7.46;
62631;PMS5003;48703;51.248;-0.546;2023-06-14T03:32:56;8.78;8.12;
62631;PMS5003;48703;51.248;-0.546;2023-06-14T03:35:57;8.61;8.41;
62631;PMS5003;48703;51.248;-0.546;2023-06-14T03:38:59;8.74;7.79;
62631;PMS5003;48703;51.248;-0.546;2023-06-14T03:42:01;9.31;8.97;
62631;PMS5003;48703;51.248;-0.546;2023-06-14T03:45:03;8.26;7.70;
62631;PMS5003;48703;51.248;-0.546;2023-06-14T03:48:04;10.37;10.30;
62631;PMS5003;48703;51.248;-0.546;2023-06-14T03:51:05;7.63;7.37;
62631;PMS5003;48703;51.248;-0.546;2023-06-14T03:54:07;8.51;8.21;
62631;PMS5003;48703;51.248;-0.546;2023-06-14T03:57:09;9.89;8.77;
62631;PMS5003;48703;51.248;-0.546;2023-06-14T04:00:11;9.60;9.13;
62631;PMS5003;48703;51.248;-0.546;2023-06-14T04:03:12;9.37;8.99;
62631;PMS5003;48703;51.248;-0.546;2023-06-14T04:06:14;9.33;8.90;
62631;PMS5003;48703;51.248;-0.546;2023-06-14T04:09:15;9.27;8.70;
62631;PMS5003;48703;51.248;-0.546;2023-06-14T04:12:16;10.06;9.34;
62631;PMS5003;48703;51.248;-0.546;2023-06-14T04:15:18;8.81;8.81;
62631;PMS5003;48703;51.248;-0.546;2023-06-14T04:18:20;9.77;9.16;
62631;PMS5003;48703;51.248;-0.546;2023-06-14T04:21:21;11.30;9.41;
62631;PMS5003;48703;51.248;-0.546;2023-06-14T04:24:23;11.04;9.54;
62631;PMS5003;48703;51.248;-0.546;2023-06-14T04:27:25;8.96;8.44;
62631;PMS5003;48703;51.248;-0.546;2023-06-14T04:30:26;9.27;8.74;
62631;PMS5003;48703;51.248;-0.546;2023-06-14T04:33:28;12.38;11.41;
62631;PMS5003;48703;51.248;-0.546;2023-06-14T04:36:29;8.33;8.33;
62631;PMS5003;48703;51.248;-0.546;2023-06-14T04:39:31;11.61;10.27;
62631;PMS5003;48703;51.248;-0.546;2023-06-14T04:42:33;11.24;10.07;
62631;PMS5003;48703;51.248;-0.546;2023-06-14T04:45:34;12.53;10.63;
62631;PMS5003;48703;51.248;-0.546;2023-06-14T04:48:35;10.06;9.83;
62631;PMS5003;48703;51.248;-0.546;2023-06-14T04:51:37;11.09;10.04;
62631;PMS5003;48703;51.248;-0.546;2023-06-14T04:54:39;10.24;9.16;
62631;PMS5003;48703;51.248;-0.546;2023-06-14T04:57:40;11.73;10.83;
62631;PMS5003;48703;51.248;-0.546;2023-06-14T05:00:42;11.23;10.27;
62631;PMS5003;48703;51.248;-0.546;2023-06-14T05:03:44;9.89;9.89;
62631;PMS5003;48703;51.248;-0.546;2023-06-14T05:06:45;9.16;8.70;
62631;PMS5003;48703;51.248;-0.546;2023-06-14T05:09:47;11.29;10.83;
62631;PMS5003;48703;51.248;-0.546;2023-06-14T05:12:49;10.26;9.96;
62631;PMS5003;48703;51.248;-0.546;2023-06-14T05:15:50;11.81;9.50;
62631;PMS5003;48703;51.248;-0.546;2023-06-14T05:18:52;9.66;9.16;
62631;PMS5003;48703;51.248;-0.546;2023-06-14T05:21:53;10.67;10.16;
62631;PMS5003;48703;51.248;-0.546;2023-06-14T05:24:54;11.57;11.04;
62631;PMS5003;48703;51.248;-0.546;2023-06-14T05:27:56;11.79;10.96;
62631;PMS5003;48703;51.248;-0.546;2023-06-14T05:30:58;10.81;10.31;
62631;PMS5003;48703;51.248;-0.546;2023-06-14T05:34:00;10.77;9.64;
62631;PMS5003;48703;51.248;-0.546;2023-06-14T05:37:01;10.13;9.57;
62631;PMS5003;48703;51.248;-0.546;2023-06-14T05:40:03;11.74;9.64;
62631;PMS5003;48703;51.248;-0.546;2023-06-14T05:43:05;10.80;9.84;
62631;PMS5003;48703;51.248;-0.546;2023-06-14T05:46:06;11.04;10.40;
62631;PMS5003;48703;51.248;-0.546;2023-06-14T05:49:08;12.74;11.20;
62631;PMS5003;48703;51.248;-0.546;2023-06-14T05:52:09;14.81;12.20;
62631;PMS5003;48703;51.248;-0.546;2023-06-14T05:55:10;12.90;11.45;
62631;PMS5003;48703;51.248;-0.546;2023-06-14T05:58:12;10.64;10.36;
62631;PMS5003;48703;51.248;-0.546;2023-06-14T06:01:13;12.81;11.58;
62631;PMS5003;48703;51.248;-0.546;2023-06-14T06:04:14;12.43;10.43;
62631;PMS5003;48703;51.248;-0.546;2023-06-14T06:07:15;11.41;10.93;
62631;PMS5003;48703;51.248;-0.546;2023-06-14T06:10:17;13.43;11.80;
62631;PMS5003;48703;51.248;-0.546;2023-06-14T06:13:19;15.43;13.57;
62631;PMS5003;48703;51.248;-0.546;2023-06-14T06:16:20;12.71;11.70;
62631;PMS5003;48703;51.248;-0.546;2023-06-14T06:19:21;13.57;11.67;
62631;PMS5003;48703;51.248;-0.546;2023-06-14T06:22:23;13.13;11.86;
62631;PMS5003;48703;51.248;-0.546;2023-06-14T06:25:25;11.44;10.80;
62631;PMS5003;48703;51.248;-0.546;2023-06-14T06:28:26;11.80;11.37;
62631;PMS5003;48703;51.248;-0.546;2023-06-14T06:31:27;14.07;12.97;
62631;PMS5003;48703;51.248;-0.546;2023-06-14T06:34:29;14.39;11.13;
62631;PMS5003;48703;51.248;-0.546;2023-06-14T06:37:30;11.34;10.39;
62631;PMS5003;48703;51.248;-0.546;2023-06-14T06:40:31;11.30;10.11;
62631;PMS5003;48703;51.248;-0.546;2023-06-14T06:43:33;13.40;12.43;
62631;PMS5003;48703;51.248;-0.546;2023-06-14T06:46:34;11.83;11.57;
62631;PMS5003;48703;51.248;-0.546;2023-06-14T06:49:36;13.04;10.99;
62631;PMS5003;48703;51.248;-0.546;2023-06-14T06:52:37;12.74;11.41;
62631;PMS5003;48703;51.248;-0.546;2023-06-14T06:55:39;12.29;11.89;
62631;PMS5003;48703;51.248;-0.546;2023-06-14T06:58:40;11.10;10.60;
62631;PMS5003;48703;51.248;-0.546;2023-06-14T07:01:42;12.34;11.44;
62631;PMS5003;48703;51.248;-0.546;2023-06-14T07:04:43;14.77;12.01;
62631;PMS5003;48703;51.248;-0.546;2023-06-14T07:07:44;12.64;11.24;
62631;PMS5003;48703;51.248;-0.546;2023-06-14T07:10:46;14.06;12.88;
62631;PMS5003;48703;51.248;-0.546;2023-06-14T07:13:47;13.29;12.23;
62631;PMS5003;48703;51.248;-0.546;2023-06-14T07:16:48;13.39;12.44;
62631;PMS5003;48703;51.248;-0.546;2023-06-14T07:19:49;13.39;11.88;
62631;PMS5003;48703;51.248;-0.546;2023-06-14T07:22:51;13.77;12.67;
62631;PMS5003;48703;51.248;-0.546;2023-06-14T07:25:52;13.59;12.96;
62631;PMS5003;48703;51.248;-0.546;2023-06-14T07:28:54;13.04;11.64;
62631;PMS5003;48703;51.248;-0.546;2023-06-14T07:31:55;12.99;12.54;
62631;PMS5003;48703;51.248;-0.546;2023-06-14T07:34:57;12.64;12.41;
62631;PMS5003;48703;51.248;-0.546;2023-06-14T07:37:58;13.87;12.40;
62631;PMS5003;48703;51.248;-0.546;2023-06-14T07:41:00;11.06;10.10;
62631;PMS5003;48703;51.248;-0.546;2023-06-14T07:44:01;12.94;12.40;
62631;PMS5003;48703;51.248;-0.546;2023-06-14T07:47:03;12.17;11.44;
62631;PMS5003;48703;51.248;-0.546;2023-06-14T07:50:04;13.35;12.77;
62631;PMS5003;48703;51.248;-0.546;2023-06-14T07:53:05;13.40;12.27;
62631;PMS5003;48703;51.248;-0.546;2023-06-14T07:56:07;13.03;12.03;
62631;PMS5003;48703;51.248;-0.546;2023-06-14T07:59:08;12.90;12.43;
62631;PMS5003;48703;51.248;-0.546;2023-06-14T08:02:10;11.57;11.57;
62631;PMS5003;48703;51.248;-0.546;2023-06-14T08:05:12;13.33;12.81;
62631;PMS5003;48703;51.248;-0.546;2023-06-14T08:08:13;13.00;12.00;
62631;PMS5003;48703;51.248;-0.546;2023-06-14T08:11:14;11.76;10.69;
62631;PMS5003;48703;51.248;-0.546;2023-06-14T08:14:16;14.29;11.99;
62631;PMS5003;48703;51.248;-0.546;2023-06-14T08:17:17;13.10;11.74;
62631;PMS5003;48703;51.248;-0.546;2023-06-14T08:20:19;12.96;12.00;
62631;PMS5003;48703;51.248;-0.546;2023-06-14T08:23:20;11.96;11.30;
62631;PMS5003;48703;51.248;-0.546;2023-06-14T08:26:22;12.71;12.16;
62631;PMS5003;48703;51.248;-0.546;2023-06-14T08:29:23;13.80;12.77;
62631;PMS5003;48703;51.248;-0.546;2023-06-14T08:32:25;13.87;13.09;
62631;PMS5003;48703;51.248;-0.546;2023-06-14T08:35:26;12.64;12.20;
62631;PMS5003;48703;51.248;-0.546;2023-06-14T08:38:28;12.01;11.00;
62631;PMS5003;48703;51.248;-0.546;2023-06-14T08:41:29;13.24;12.69;
62631;PMS5003;48703;51.248;-0.546;2023-06-14T08:44:30;13.68;12.30;
62631;PMS5003;48703;51.248;-0.546;2023-06-14T08:47:32;13.46;12.19;
62631;PMS5003;48703;51.248;-0.546;2023-06-14T08:50:33;13.40;11.73;
62631;PMS5003;48703;51.248;-0.546;2023-06-14T08:53:35;15.39;13.11;
62631;PMS5003;48703;51.248;-0.546;2023-06-14T08:56:36;13.06;12.80;
62631;PMS5003;48703;51.248;-0.546;2023-06-14T08:59:38;14.84;13.80;
62631;PMS5003;48703;51.248;-0.546;2023-06-14T09:02:39;13.41;12.71;
62631;PMS5003;48703;51.248;-0.546;2023-06-14T09:05:40;15.51;12.91;
62631;PMS5003;48703;51.248;-0.546;2023-06-14T09:08:42;13.04;11.69;
62631;PMS5003;48703;51.248;-0.546;2023-06-14T09:11:43;11.83;11.40;
62631;PMS5003;48703;51.248;-0.546;2023-06-14T09:14:45;16.97;15.06;
62631;PMS5003;48703;51.248;-0.546;2023-06-14T09:17:46;18.45;15.67;
62631;PMS5003;48703;51.248;-0.546;2023-06-14T09:20:47;15.97;15.01;
62631;PMS5003;48703;51.248;-0.546;2023-06-14T09:23:49;15.41;13.40;
62631;PMS5003;48703;51.248;-0.546;2023-06-14T09:26:50;21.38;18.12;
62631;PMS5003;48703;51.248;-0.546;2023-06-14T09:29:52;19.53;17.94;
62631;PMS5003;48703;51.248;-0.546;2023-06-14T09:32:54;16.87;16.20;
62631;PMS5003;48703;51.248;-0.546;2023-06-14T09:35:54;21.83;19.81;
62631;PMS5003;48703;51.248;-0.546;2023-06-14T09:38:56;16.03;15.00;
62631;PMS5003;48703;51.248;-0.546;2023-06-14T09:41:57;16.96;15.91;
62631;PMS5003;48703;51.248;-0.546;2023-06-14T09:45:00;17.90;16.56;
62631;PMS5003;48703;51.248;-0.546;2023-06-14T09:48:01;20.36;17.33;
62631;PMS5003;48703;51.248;-0.546;2023-06-14T09:51:02;17.93;17.13;
62631;PMS5003;48703;51.248;-0.546;2023-06-14T09:54:03;16.67;15.20;
62631;PMS5003;48703;51.248;-0.546;2023-06-14T09:57:05;19.73;17.57;
62631;PMS5003;48703;51.248;-0.546;2023-06-14T10:00:07;18.39;17.23;
62631;PMS5003;48703;51.248;-0.546;2023-06-14T10:03:11;19.93;18.78;
62631;PMS5003;48703;51.248;-0.546;2023-06-14T10:06:08;16.84;15.00;
62631;PMS5003;48703;51.248;-0.546;2023-06-14T10:09:09;17.36;16.32;
62631;PMS5003;48703;51.248;-0.546;2023-06-14T10:12:10;14.97;14.59;
62631;PMS5003;48703;51.248;-0.546;2023-06-14T10:15:14;14.60;13.80;
62631;PMS5003;48703;51.248;-0.546;2023-06-14T10:18:15;16.43;15.60;
62631;PMS5003;48703;51.248;-0.546;2023-06-14T10:21:16;18.73;17.77;
62631;PMS5003;48703;51.248;-0.546;2023-06-14T10:24:15;17.17;15.91;
62631;PMS5003;48703;51.248;-0.546;2023-06-14T10:27:16;17.93;16.97;
62631;PMS5003;48703;51.248;-0.546;2023-06-14T10:30:17;15.34;14.64;
62631;PMS5003;48703;51.248;-0.546;2023-06-14T10:33:19;18.49;18.00;
62631;PMS5003;48703;51.248;-0.546;2023-06-14T10:36:25;19.47;18.16;
62631;PMS5003;48703;51.248;-0.546;2023-06-14T10:39:22;19.12;17.36;
62631;PMS5003;48703;51.248;-0.546;2023-06-14T10:42:23;17.03;16.57;
62631;PMS5003;48703;51.248;-0.546;2023-06-14T10:45:24;15.41;14.79;
62631;PMS5003;48703;51.248;-0.546;2023-06-14T10:48:30;17.31;16.50;
62631;PMS5003;48703;51.248;-0.546;2023-06-14T10:51:29;17.64;16.40;
62631;PMS5003;48703;51.248;-0.546;2023-06-14T10:54:29;18.97;16.29;
62631;PMS5003;48703;51.248;-0.546;2023-06-14T10:57:30;17.49;17.14;
62631;PMS5003;48703;51.248;-0.546;2023-06-14T11:00:33;20.59;19.29;
62631;PMS5003;48703;51.248;-0.546;2023-06-14T11:03:43;19.31;16.86;
62631;PMS5003;48703;51.248;-0.546;2023-06-14T11:06:43;17.24;16.04;
62631;PMS5003;48703;51.248;-0.546;2023-06-14T11:09:41;18.34;17.24;
62631;PMS5003;48703;51.248;-0.546;2023-06-14T11:12:37;19.19;18.01;
62631;PMS5003;48703;51.248;-0.546;2023-06-14T11:15:45;18.10;17.37;
62631;PMS5003;48703;51.248;-0.546;2023-06-14T11:18:41;19.09;18.09;
62631;PMS5003;48703;51.248;-0.546;2023-06-14T11:21:41;17.91;17.91;
62631;PMS5003;48703;51.248;-0.546;2023-06-14T11:24:43;18.10;17.06;
62631;PMS5003;48703;51.248;-0.546;2023-06-14T11:27:44;19.17;18.39;
62631;PMS5003;48703;51.248;-0.546;2023-06-14T11:30:46;18.49;17.46;
62631;PMS5003;48703;51.248;-0.546;2023-06-14T11:33:49;18.06;17.57;
62631;PMS5003;48703;51.248;-0.546;2023-06-14T11:36:49;18.97;17.93;
62631;PMS5003;48703;51.248;-0.546;2023-06-14T11:39:49;18.93;18.29;
62631;PMS5003;48703;51.248;-0.546;2023-06-14T11:42:57;19.03;18.46;
62631;PMS5003;48703;51.248;-0.546;2023-06-14T11:45:52;20.97;18.44;
62631;PMS5003;48703;51.248;-0.546;2023-06-14T11:48:54;20.30;19.77;
62631;PMS5003;48703;51.248;-0.546;2023-06-14T11:51:55;20.80;20.06;
62631;PMS5003;48703;51.248;-0.546;2023-06-14T11:54:57;20.70;19.97;
62631;PMS5003;48703;51.248;-0.546;2023-06-14T11:57:58;22.04;19.41;
62631;PMS5003;48703;51.248;-0.546;2023-06-14T12:00:59;20.91;19.96;
62631;PMS5003;48703;51.248;-0.546;2023-06-14T12:04:01;19.26;19.26;
62631;PMS5003;48703;51.248;-0.546;2023-06-14T12:07:08;22.46;19.97;
62631;PMS5003;48703;51.248;-0.546;2023-06-14T12:10:04;18.67;17.83;
62631;PMS5003;48703;51.248;-0.546;2023-06-14T12:13:04;20.91;19.14;
62631;PMS5003;48703;51.248;-0.546;2023-06-14T12:16:06;21.47;20.23;
62631;PMS5003;48703;51.248;-0.546;2023-06-14T12:19:08;22.00;20.68;
62631;PMS5003;48703;51.248;-0.546;2023-06-14T12:22:08;20.61;19.52;
62631;PMS5003;48703;51.248;-0.546;2023-06-14T12:25:08;22.91;21.09;
62631;PMS5003;48703;51.248;-0.546;2023-06-14T12:28:09;19.77;19.17;
62631;PMS5003;48703;51.248;-0.546;2023-06-14T12:31:11;20.87;20.31;
62631;PMS5003;48703;51.248;-0.546;2023-06-14T12:34:12;19.19;18.66;
62631;PMS5003;48703;51.248;-0.546;2023-06-14T12:37:13;21.00;19.81;
62631;PMS5003;48703;51.248;-0.546;2023-06-14T12:40:15;18.66;18.64;
62631;PMS5003;48703;51.248;-0.546;2023-06-14T12:43:16;19.63;18.99;
62631;PMS5003;48703;51.248;-0.546;2023-06-14T12:46:18;20.80;20.17;
62631;PMS5003;48703;51.248;-0.546;2023-06-14T12:49:19;20.07;18.99;
62631;PMS5003;48703;51.248;-0.546;2023-06-14T12:52:20;22.97;21.57;
62631;PMS5003;48703;51.248;-0.546;2023-06-14T12:55:21;20.52;20.42;
62631;PMS5003;48703;51.248;-0.546;2023-06-14T12:58:23;21.57;20.36;
62631;PMS5003;48703;51.248;-0.546;2023-06-14T13:01:24;23.32;21.46;
62631;PMS5003;48703;51.248;-0.546;2023-06-14T13:04:25;23.41;22.25;
62631;PMS5003;48703;51.248;-0.546;2023-06-14T13:07:26;23.93;22.62;
62631;PMS5003;48703;51.248;-0.546;2023-06-14T13:10:27;23.59;22.94;
62631;PMS5003;48703;51.248;-0.546;2023-06-14T13:13:28;22.29;21.91;
62631;PMS5003;48703;51.248;-0.546;2023-06-14T13:16:30;20.61;20.19;
62631;PMS5003;48703;51.248;-0.546;2023-06-14T13:19:30;23.41;21.58;
62631;PMS5003;48703;51.248;-0.546;2023-06-14T13:22:31;21.64;20.30;
62631;PMS5003;48703;51.248;-0.546;2023-06-14T13:25:33;20.71;19.60;
62631;PMS5003;48703;51.248;-0.546;2023-06-14T13:28:34;23.93;21.99;
62631;PMS5003;48703;51.248;-0.546;2023-06-14T13:31:35;22.81;22.46;
62631;PMS5003;48703;51.248;-0.546;2023-06-14T13:34:37;26.46;23.37;
62631;PMS5003;48703;51.248;-0.546;2023-06-14T13:37:38;21.03;20.20;
62631;PMS5003;48703;51.248;-0.546;2023-06-14T13:40:40;22.06;20.66;
62631;PMS5003;48703;51.248;-0.546;2023-06-14T13:43:41;21.64;20.65;
62631;PMS5003;48703;51.248;-0.546;2023-06-14T13:46:42;21.81;19.63;
62631;PMS5003;48703;51.248;-0.546;2023-06-14T13:49:44;22.91;21.93;
62631;PMS5003;48703;51.248;-0.546;2023-06-14T13:52:45;22.49;20.79;
62631;PMS5003;48703;51.248;-0.546;2023-06-14T13:55:46;21.09;20.27;
62631;PMS5003;48703;51.248;-0.546;2023-06-14T13:58:48;22.13;21.38;
62631;PMS5003;48703;51.248;-0.546;2023-06-14T14:01:49;20.96;19.86;
62631;PMS5003;48703;51.248;-0.546;2023-06-14T14:04:51;22.01;20.89;
62631;PMS5003;48703;51.248;-0.546;2023-06-14T14:07:52;22.21;21.66;
62631;PMS5003;48703;51.248;-0.546;2023-06-14T14:10:54;22.53;21.29;
62631;PMS5003;48703;51.248;-0.546;2023-06-14T14:13:55;22.70;20.61;
62631;PMS5003;48703;51.248;-0.546;2023-06-14T14:16:57;21.23;21.09;
62631;PMS5003;48703;51.248;-0.546;2023-06-14T14:19:58;20.13;20.03;
62631;PMS5003;48703;51.248;-0.546;2023-06-14T14:22:59;20.54;19.56;
62631;PMS5003;48703;51.248;-0.546;2023-06-14T14:26:01;21.53;20.54;
62631;PMS5003;48703;51.248;-0.546;2023-06-14T14:29:02;22.49;20.44;
62631;PMS5003;48703;51.248;-0.546;2023-06-14T14:32:03;21.13;20.23;
62631;PMS5003;48703;51.248;-0.546;2023-06-14T14:35:04;21.14;19.17;
62631;PMS5003;48703;51.248;-0.546;2023-06-14T14:38:05;23.43;21.91;
62631;PMS5003;48703;51.248;-0.546;2023-06-14T14:41:06;22.74;22.55;
62631;PMS5003;48703;51.248;-0.546;2023-06-14T14:44:07;22.23;21.40;
62631;PMS5003;48703;51.248;-0.546;2023-06-14T14:47:09;21.97;20.43;
62631;PMS5003;48703;51.248;-0.546;2023-06-14T14:50:11;20.86;20.41;
62631;PMS5003;48703;51.248;-0.546;2023-06-14T14:53:20;24.59;23.39;
62631;PMS5003;48703;51.248;-0.546;2023-06-14T14:56:14;21.33;20.37;
62631;PMS5003;48703;51.248;-0.546;2023-06-14T14:59:16;23.13;22.17;
62631;PMS5003;48703;51.248;-0.546;2023-06-14T15:02:17;22.49;20.63;
62631;PMS5003;48703;51.248;-0.546;2023-06-14T15:05:18;22.60;20.94;
62631;PMS5003;48703;51.248;-0.546;2023-06-14T15:08:20;21.89;20.50;
62631;PMS5003;48703;51.248;-0.546;2023-06-14T15:11:21;23.21;21.94;
62631;PMS5003;48703;51.248;-0.546;2023-06-14T15:14:22;22.81;21.58;
62631;PMS5003;48703;51.248;-0.546;2023-06-14T15:17:23;21.39;20.49;
62631;PMS5003;48703;51.248;-0.546;2023-06-14T15:20:24;21.70;20.97;
62631;PMS5003;48703;51.248;-0.546;2023-06-14T15:23:25;22.19;21.36;
62631;PMS5003;48703;51.248;-0.546;2023-06-14T15:26:27;21.16;20.49;
62631;PMS5003;48703;51.248;-0.546;2023-06-14T15:29:28;19.21;18.21;
62631;PMS5003;48703;51.248;-0.546;2023-06-14T15:32:29;19.41;17.77;
62631;PMS5003;48703;51.248;-0.546;2023-06-14T15:35:30;21.99;21.96;
62631;PMS5003;48703;51.248;-0.546;2023-06-14T15:38:31;20.57;19.89;
62631;PMS5003;48703;51.248;-0.546;2023-06-14T15:41:32;20.87;20.04;
62631;PMS5003;48703;51.248;-0.546;2023-06-14T15:44:34;20.73;19.61;
62631;PMS5003;48703;51.248;-0.546;2023-06-14T15:47:35;23.04;20.86;
62631;PMS5003;48703;51.248;-0.546;2023-06-14T15:50:36;19.26;19.20;
62631;PMS5003;48703;51.248;-0.546;2023-06-14T15:53:37;22.70;21.91;
62631;PMS5003;48703;51.248;-0.546;2023-06-14T15:56:39;21.63;20.51;
62631;PMS5003;48703;51.248;-0.546;2023-06-14T15:59:40;20.93;20.59;
62631;PMS5003;48703;51.248;-0.546;2023-06-14T16:02:41;22.57;21.44;
62631;PMS5003;48703;51.248;-0.546;2023-06-14T16:05:43;23.83;22.69;
62631;PMS5003;48703;51.248;-0.546;2023-06-14T16:08:44;22.90;21.06;
62631;PMS5003;48703;51.248;-0.546;2023-06-14T16:11:45;20.24;19.31;
62631;PMS5003;48703;51.248;-0.546;2023-06-14T16:14:46;21.16;20.88;
62631;PMS5003;48703;51.248;-0.546;2023-06-14T16:17:47;21.13;20.36;
62631;PMS5003;48703;51.248;-0.546;2023-06-14T16:20:48;26.30;23.03;
62631;PMS5003;48703;51.248;-0.546;2023-06-14T16:23:50;21.99;21.43;
62631;PMS5003;48703;51.248;-0.546;2023-06-14T16:26:51;23.40;21.33;
62631;PMS5003;48703;51.248;-0.546;2023-06-14T16:29:52;20.60;19.53;
62631;PMS5003;48703;51.248;-0.546;2023-06-14T16:32:53;20.40;20.10;
62631;PMS5003;48703;51.248;-0.546;2023-06-14T16:35:54;23.66;22.13;
62631;PMS5003;48703;51.248;-0.546;2023-06-14T16:38:56;20.77;20.47;
62631;PMS5003;48703;51.248;-0.546;2023-06-14T16:41:57;20.34;19.34;
62631;PMS5003;48703;51.248;-0.546;2023-06-14T16:44:58;20.14;20.14;
62631;PMS5003;48703;51.248;-0.546;2023-06-14T16:48:00;21.96;21.26;
62631;PMS5003;48703;51.248;-0.546;2023-06-14T16:51:01;22.86;21.45;
62631;PMS5003;48703;51.248;-0.546;2023-06-14T16:54:03;23.44;21.60;
62631;PMS5003;48703;51.248;-0.546;2023-06-14T16:57:04;22.40;20.99;
62631;PMS5003;48703;51.248;-0.546;2023-06-14T17:00:06;21.74;19.97;
62631;PMS5003;48703;51.248;-0.546;2023-06-14T17:03:07;20.83;20.26;
62631;PMS5003;48703;51.248;-0.546;2023-06-14T17:06:08;22.07;21.29;
62631;PMS5003;48703;51.248;-0.546;2023-06-14T17:09:08;19.79;18.96;
62631;PMS5003;48703;51.248;-0.546;2023-06-14T17:12:10;22.99;22.00;
62631;PMS5003;48703;51.248;-0.546;2023-06-14T17:15:12;18.66;18.33;
62631;PMS5003;48703;51.248;-0.546;2023-06-14T17:18:13;20.16;19.46;
62631;PMS5003;48703;51.248;-0.546;2023-06-14T17:21:14;20.74;19.97;
62631;PMS5003;48703;51.248;-0.546;2023-06-14T17:24:15;21.03;20.11;
62631;PMS5003;48703;51.248;-0.546;2023-06-14T17:27:16;19.90;19.84;
62631;PMS5003;48703;51.248;-0.546;2023-06-14T17:30:18;20.63;20.30;
62631;PMS5003;48703;51.248;-0.546;2023-06-14T17:33:19;20.19;19.19;
62631;PMS5003;48703;51.248;-0.546;2023-06-14T17:36:20;21.90;21.20;
62631;PMS5003;48703;51.248;-0.546;2023-06-14T17:39:21;22.45;21.96;
62631;PMS5003;48703;51.248;-0.546;2023-06-14T17:42:23;20.16;19.93;
62631;PMS5003;48703;51.248;-0.546;2023-06-14T17:45:24;20.09;18.83;
62631;PMS5003;48703;51.248;-0.546;2023-06-14T17:48:26;18.59;18.29;
62631;PMS5003;48703;51.248;-0.546;2023-06-14T17:51:27;18.53;17.74;
62631;PMS5003;48703;51.248;-0.546;2023-06-14T17:54:28;19.51;18.63;
62631;PMS5003;48703;51.248;-0.546;2023-06-14T17:57:29;22.06;21.01;
62631;PMS5003;48703;51.248;-0.546;2023-06-14T18:00:30;19.50;18.44;